Time;durP1;ratioP1;P1;durP2;ratioP2;P2;SDS_P1;SDS_P2;PMS_P1;PMS_P2;Temp;Humidity;BMP_temperature;BMP_pressure;BME280_temperature;BME280_humidity;BME280_pressure;Samples;Min_cycle;Max_cycle;Signal;HPM_P1;HPM_P2
2022/06/06 00:01:48;;;;;;;20.90;11.32;;;10.80;99.90;;;;;;4890258;29;20060;-58
2022/06/06 00:04:18;;;;;;;21.52;11.93;;;10.80;99.90;;;;;;4894408;29;20048;-58
2022/06/06 00:06:46;;;;;;;22.23;12.20;;;10.80;99.90;;;;;;4894884;29;20048;-58
2022/06/06 00:09:15;;;;;;;24.15;12.07;;;10.90;99.90;;;;;;4886082;29;20056;-57
2022/06/06 00:11:43;;;;;;;34.35;12.25;;;10.80;99.90;;;;;;4894375;29;20063;-58
2022/06/06 00:14:13;;;;;;;21.90;10.40;;;10.80;99.90;;;;;;4895395;29;20056;-58
2022/06/06 00:16:41;;;;;;;24.45;12.48;;;10.80;99.90;;;;;;4888077;29;20072;-55
2022/06/06 00:19:10;;;;;;;25.83;11.32;;;10.80;99.90;;;;;;4888638;29;20048;-55
2022/06/06 00:21:39;;;;;;;25.40;12.30;;;10.80;99.90;;;;;;4896289;29;20048;-55
2022/06/06 00:24:07;;;;;;;22.17;11.38;;;10.80;99.90;;;;;;4892778;29;20053;-55
2022/06/06 00:26:35;;;;;;;22.55;11.52;;;10.80;99.90;;;;;;4894929;29;20527;-56
2022/06/06 00:29:04;;;;;;;24.38;10.90;;;10.70;99.90;;;;;;4894252;29;20519;-55
2022/06/06 00:37:12;;;;;;;24.85;10.82;;;10.70;99.90;;;;;;4896488;29;20059;-57
2022/06/06 00:39:50;;;;;;;19.85;10.05;;;10.70;99.90;;;;;;4893423;29;20051;-57
2022/06/06 00:42:25;;;;;;;19.55;9.88;;;10.70;99.90;;;;;;4894417;29;20059;-56
2022/06/06 00:45:14;;;;;;;21.65;10.10;;;10.70;99.90;;;;;;4894147;29;20045;-57
2022/06/06 00:47:44;;;;;;;23.63;10.38;;;10.70;99.90;;;;;;4891823;29;20426;-57
2022/06/06 00:50:16;;;;;;;21.83;10.00;;;10.70;99.90;;;;;;4894940;29;20521;-57
2022/06/06 00:52:47;;;;;;;19.23;9.70;;;10.60;99.90;;;;;;4892761;29;20183;-58
2022/06/06 00:55:22;;;;;;;21.15;10.38;;;10.60;99.90;;;;;;4894314;29;20048;-58
2022/06/06 00:57:56;;;;;;;19.08;10.00;;;10.60;99.90;;;;;;4892648;29;20045;-57
2022/06/06 01:00:24;;;;;;;14.45;9.35;;;10.60;99.90;;;;;;4894022;29;20508;-56
2022/06/06 01:02:56;;;;;;;20.23;9.93;;;10.60;99.90;;;;;;4883914;29;20048;-58
2022/06/06 01:05:25;;;;;;;17.23;9.75;;;10.60;99.90;;;;;;4890315;29;20048;-59
2022/06/06 01:07:53;;;;;;;20.13;10.07;;;10.60;99.90;;;;;;4893496;29;20047;-58
2022/06/06 01:10:22;;;;;;;20.45;10.02;;;10.60;99.90;;;;;;4893428;29;20449;-59
2022/06/06 01:12:53;;;;;;;15.60;9.38;;;10.50;99.90;;;;;;4894783;29;20138;-55
2022/06/06 01:15:25;;;;;;;16.63;8.40;;;10.60;99.90;;;;;;4895542;29;20052;-57
2022/06/06 01:18:33;;;;;;;15.02;8.07;;;10.60;99.90;;;;;;4880462;29;20055;-56
2022/06/06 01:22:02;;;;;;;16.60;8.77;;;10.60;99.90;;;;;;4883926;29;20052;-58
2022/06/06 01:24:42;;;;;;;13.27;8.43;;;10.60;99.90;;;;;;4884612;29;20052;-55
2022/06/06 01:27:15;;;;;;;10.90;6.97;;;10.60;99.90;;;;;;4894413;29;20044;-55
2022/06/06 01:29:51;;;;;;;12.48;7.10;;;10.60;99.90;;;;;;4891872;29;20053;-57
2022/06/06 01:32:22;;;;;;;16.40;7.55;;;10.60;99.90;;;;;;4883864;29;20040;-58
2022/06/06 01:34:54;;;;;;;11.60;8.07;;;10.60;99.90;;;;;;4885125;29;20060;-58
2022/06/06 01:37:29;;;;;;;14.27;8.15;;;10.50;99.90;;;;;;4891260;29;20409;-58
2022/06/06 01:39:59;;;;;;;13.68;7.75;;;10.60;99.90;;;;;;4895046;29;20051;-57
2022/06/06 01:42:30;;;;;;;;;;;10.50;99.90;;;;;;4888092;29;20048;-59
2022/06/06 01:45:41;;;;;;;18.73;7.80;;;10.50;99.90;;;;;;4893867;29;19923;-58
2022/06/06 01:48:14;;;;;;;13.45;7.15;;;10.50;99.90;;;;;;4856091;29;20061;-57
2022/06/06 01:50:43;;;;;;;18.23;7.72;;;10.50;99.90;;;;;;4889498;29;20044;-56
2022/06/06 01:53:14;;;;;;;14.83;7.97;;;10.50;99.90;;;;;;4894306;29;20056;-56
2022/06/06 01:55:44;;;;;;;14.05;7.57;;;10.50;99.90;;;;;;4893437;29;20524;-57
2022/06/06 01:58:20;;;;;;;13.77;8.82;;;10.50;99.90;;;;;;4890013;29;20060;-57
2022/06/06 02:00:48;;;;;;;11.40;7.30;;;10.50;99.90;;;;;;4892922;29;20041;-59
2022/06/06 02:03:16;;;;;;;15.55;7.97;;;10.50;99.90;;;;;;4894758;29;20501;-58
2022/06/06 02:05:44;;;;;;;13.02;7.65;;;10.50;99.90;;;;;;4893064;29;20052;-60
2022/06/06 02:08:12;;;;;;;13.52;7.32;;;10.50;99.90;;;;;;4893732;29;20440;-58
2022/06/06 02:10:41;;;;;;;15.07;7.93;;;10.50;99.90;;;;;;4892976;29;20079;-59
2022/06/06 02:13:08;;;;;;;13.27;7.40;;;10.50;99.90;;;;;;4892155;29;20045;-56
2022/06/06 02:15:36;;;;;;;13.73;7.32;;;10.50;99.90;;;;;;4895180;29;20481;-57
2022/06/06 02:18:04;;;;;;;18.67;9.00;;;10.50;99.90;;;;;;4894206;29;20045;-58
2022/06/06 02:20:33;;;;;;;12.73;7.63;;;10.50;99.90;;;;;;4885829;29;20056;-58
2022/06/06 02:23:02;;;;;;;15.70;7.68;;;10.50;99.90;;;;;;4895759;29;20477;-58
2022/06/06 02:25:30;;;;;;;12.65;7.85;;;10.50;99.90;;;;;;4901328;29;20059;-57
2022/06/06 02:27:58;;;;;;;13.93;7.47;;;10.50;99.90;;;;;;4900591;29;20052;-58
2022/06/06 02:30:29;;;;;;;14.45;7.45;;;10.50;99.90;;;;;;4899560;29;20074;-57
2022/06/06 02:32:57;;;;;;;11.38;7.22;;;10.50;99.90;;;;;;4900242;29;20049;-56
2022/06/06 02:35:30;;;;;;;11.57;7.80;;;10.50;99.90;;;;;;4900447;29;20052;-58
2022/06/06 02:38:01;;;;;;;13.52;7.50;;;10.50;99.90;;;;;;4899776;29;20048;-58
2022/06/06 02:40:32;;;;;;;12.27;7.47;;;10.30;99.90;;;;;;4914427;29;20621;-56
2022/06/06 02:43:01;;;;;;;10.63;6.60;;;10.50;99.90;;;;;;4901376;29;20504;-57
2022/06/06 02:45:29;;;;;;;12.85;7.63;;;10.50;99.90;;;;;;4901888;29;20056;-58
2022/06/06 02:47:58;;;;;;;10.88;6.90;;;10.50;99.90;;;;;;4899481;29;20057;-55
2022/06/06 02:50:29;;;;;;;13.95;7.22;;;10.50;99.90;;;;;;4900014;29;20044;-57
2022/06/06 02:52:58;;;;;;;11.65;6.78;;;10.50;99.90;;;;;;4900378;29;20104;-57
2022/06/06 02:55:26;;;;;;;10.27;6.80;;;10.50;99.90;;;;;;4892033;29;20040;-57
2022/06/06 02:57:54;;;;;;;12.82;6.45;;;10.50;99.90;;;;;;4901166;29;20437;-57
2022/06/06 03:00:28;;;;;;;10.90;6.72;;;10.50;99.90;;;;;;4900476;29;20048;-57
2022/06/06 03:02:56;;;;;;;8.88;5.65;;;10.50;99.90;;;;;;4900514;29;20374;-56
2022/06/06 03:05:47;;;;;;;10.38;6.55;;;10.50;99.90;;;;;;4900431;29;20477;-58
2022/06/06 03:08:44;;;;;;;10.45;6.30;;;10.50;99.90;;;;;;4897866;29;20528;-55
2022/06/06 03:11:11;;;;;;;9.25;5.43;;;10.50;99.90;;;;;;4899410;29;20063;-57
2022/06/06 03:14:05;;;;;;;8.05;5.45;;;10.50;99.90;;;;;;4898536;29;20044;-57
2022/06/06 03:22:33;;;;;;;8.32;5.40;;;10.50;99.90;;;;;;4896861;29;20044;-57
2022/06/06 03:25:38;;;;;;;9.07;5.78;;;10.50;99.90;;;;;;4892896;29;20056;-56
2022/06/06 03:28:25;;;;;;;11.38;5.95;;;10.50;99.90;;;;;;4897880;29;20060;-55
2022/06/06 03:31:07;;;;;;;11.50;5.95;;;10.40;99.90;;;;;;4892194;29;20378;-56
2022/06/06 03:33:39;;;;;;;11.65;6.43;;;10.50;99.90;;;;;;4887797;29;20043;-58
2022/06/06 03:36:19;;;;;;;12.20;7.32;;;10.50;99.90;;;;;;4893679;29;20053;-57
2022/06/06 03:39:02;;;;;;;15.32;7.13;;;10.50;99.90;;;;;;4891121;29;20046;-57
2022/06/06 03:41:40;;;;;;;12.70;6.57;;;10.50;99.90;;;;;;4895625;29;20401;-57
2022/06/06 03:44:34;;;;;;;11.05;7.03;;;10.40;99.90;;;;;;4879450;29;20091;-55
2022/06/06 03:47:06;;;;;;;13.27;7.72;;;10.40;99.90;;;;;;4903748;29;20048;-55
2022/06/06 03:49:52;;;;;;;14.30;7.10;;;10.40;99.90;;;;;;4896361;29;20045;-56
2022/06/06 03:52:31;;;;;;;11.13;6.55;;;10.40;99.90;;;;;;4896323;29;20048;-54
2022/06/06 03:55:02;;;;;;;12.48;7.13;;;10.40;99.90;;;;;;4896528;29;20521;-55
2022/06/06 03:57:32;;;;;;;13.75;7.05;;;10.40;99.90;;;;;;4894894;29;20417;-55
2022/06/06 04:00:03;;;;;;;;;;;10.40;99.90;;;;;;4898077;29;20525;-57
2022/06/06 04:02:43;;;;;;;11.95;6.63;;;10.40;99.90;;;;;;4897884;29;19927;-57
2022/06/06 04:05:18;;;;;;;12.10;7.10;;;10.40;99.90;;;;;;4896607;29;20064;-58
2022/06/06 04:07:46;;;;;;;11.00;7.35;;;10.40;99.90;;;;;;4896719;29;20386;-58
2022/06/06 04:10:14;;;;;;;15.48;8.85;;;10.40;99.90;;;;;;4892528;29;20060;-57
2022/06/06 04:13:28;;;;;;;15.07;8.15;;;10.40;99.90;;;;;;4898488;29;20042;-58
2022/06/06 04:16:01;;;;;;;16.05;8.50;;;10.40;99.90;;;;;;4897585;29;20049;-58
2022/06/06 04:19:07;;;;;;;17.58;8.40;;;10.40;99.90;;;;;;4896607;29;20049;-58
2022/06/06 04:22:02;;;;;;;13.90;7.82;;;10.40;99.90;;;;;;4870634;29;20056;-59
2022/06/06 04:25:02;;;;;;;15.02;8.60;;;10.40;99.90;;;;;;4895377;29;20064;-58
2022/06/06 04:27:48;;;;;;;;;;;10.40;99.90;;;;;;4851611;29;20056;-57
2022/06/06 04:30:28;;;;;;;14.60;8.45;;;10.40;99.90;;;;;;4888190;29;19930;-57
2022/06/06 04:33:18;;;;;;;13.10;8.70;;;10.40;99.90;;;;;;4897034;29;20477;-59
2022/06/06 04:36:11;;;;;;;14.75;8.05;;;10.40;99.90;;;;;;4897159;29;20493;-57
2022/06/06 04:38:45;;;;;;;16.65;7.90;;;10.50;99.90;;;;;;4895702;29;20512;-57
2022/06/06 04:41:26;;;;;;;16.27;8.65;;;10.40;99.90;;;;;;4896618;29;20051;-58
2022/06/06 04:44:16;;;;;;;14.35;8.30;;;10.50;99.90;;;;;;4894903;29;20057;-57
2022/06/06 04:47:02;;;;;;;14.10;8.27;;;10.50;99.90;;;;;;4895305;29;20053;-58
2022/06/06 04:49:31;;;;;;;17.05;8.32;;;10.50;99.90;;;;;;4888966;29;20057;-56
2022/06/06 04:52:01;;;;;;;17.13;8.85;;;10.50;99.90;;;;;;4892633;29;20048;-58
2022/06/06 04:54:32;;;;;;;13.40;8.13;;;10.50;99.90;;;;;;4893330;29;20060;-58
2022/06/06 04:57:01;;;;;;;;;;;10.50;99.90;;;;;;4886921;29;20059;-58
2022/06/06 04:59:30;;;;;;;16.95;8.25;;;10.50;99.90;;;;;;4892641;29;19923;-58
2022/06/06 05:02:02;;;;;;;16.10;8.73;;;10.50;99.90;;;;;;4889061;29;20056;-57
2022/06/06 05:04:30;;;;;;;16.70;8.93;;;10.50;99.90;;;;;;4876427;29;20049;-57
2022/06/06 05:07:22;;;;;;;14.43;8.70;;;10.50;99.90;;;;;;4890403;29;20052;-57
2022/06/06 05:10:24;;;;;;;17.48;8.63;;;10.50;99.90;;;;;;4890883;29;20056;-58
2022/06/06 05:13:17;;;;;;;15.48;8.68;;;10.50;99.90;;;;;;4862327;29;20052;-58
2022/06/06 05:16:10;;;;;;;17.42;8.60;;;10.50;99.90;;;;;;4892665;29;20658;-59
2022/06/06 05:19:06;;;;;;;14.38;8.55;;;10.50;99.90;;;;;;4894024;29;20041;-58
2022/06/06 05:22:00;;;;;;;17.63;8.05;;;10.50;99.90;;;;;;4885347;29;20045;-59
2022/06/06 05:24:40;;;;;;;15.15;8.90;;;10.50;99.90;;;;;;4891258;29;20057;-58
2022/06/06 05:27:27;;;;;;;17.60;8.82;;;10.50;99.90;;;;;;4892401;29;20438;-59
2022/06/06 05:30:04;;;;;;;13.57;7.82;;;10.60;99.90;;;;;;4891837;29;20064;-59
2022/06/06 05:33:01;;;;;;;13.65;7.47;;;10.50;99.90;;;;;;4893229;29;20052;-59
2022/06/06 05:35:46;;;;;;;14.43;8.35;;;10.50;99.90;;;;;;4879609;29;20375;-58
2022/06/06 05:38:22;;;;;;;14.90;8.43;;;10.60;99.90;;;;;;4879541;29;20052;-58
2022/06/06 05:41:17;;;;;;;13.70;6.95;;;10.60;99.90;;;;;;4891619;29;20138;-60
2022/06/06 05:44:15;;;;;;;10.25;6.25;;;10.60;99.90;;;;;;4891787;29;20413;-58
2022/06/06 05:47:12;;;;;;;8.82;5.07;;;10.60;99.90;;;;;;4884469;29;20056;-55
2022/06/06 05:49:43;;;;;;;10.07;4.95;;;10.60;99.90;;;;;;4870787;29;20053;-58
2022/06/06 05:53:10;;;;;;;8.90;5.13;;;10.70;99.90;;;;;;4885056;29;20056;-60
2022/06/06 05:55:58;;;;;;;8.30;4.97;;;10.70;99.90;;;;;;4869902;29;20053;-55
2022/06/06 05:58:25;;;;;;;13.35;4.85;;;10.70;99.90;;;;;;4890925;29;20036;-58
2022/06/06 06:01:34;;;;;;;9.63;3.92;;;10.80;99.90;;;;;;4891464;29;20048;-56
2022/06/06 06:04:02;;;;;;;8.02;4.85;;;10.70;99.90;;;;;;4892178;29;20052;-58
2022/06/06 06:07:02;;;;;;;7.63;4.68;;;10.80;99.90;;;;;;4892416;29;20044;-56
2022/06/06 06:10:00;;;;;;;7.97;4.57;;;10.80;99.90;;;;;;4893663;29;20445;-55
2022/06/06 06:12:39;;;;;;;8.38;4.03;;;10.80;99.90;;;;;;4890098;29;20044;-55
2022/06/06 06:15:16;;;;;;;5.80;3.22;;;10.80;99.90;;;;;;4892605;29;20397;-57
2022/06/06 06:17:48;;;;;;;4.50;3.38;;;10.80;99.90;;;;;;4891935;29;20061;-59
2022/06/06 06:20:23;;;;;;;4.32;2.90;;;10.90;99.90;;;;;;4891740;29;20047;-57
2022/06/06 06:22:56;;;;;;;4.63;2.90;;;10.90;99.90;;;;;;4892029;29;20065;-56
2022/06/06 06:25:25;;;;;;;4.18;2.58;;;11.00;99.90;;;;;;4892051;29;20040;-56
2022/06/06 06:27:58;;;;;;;4.22;2.80;;;11.00;99.90;;;;;;4887806;29;20534;-58
2022/06/06 06:30:33;;;;;;;3.97;2.92;;;11.00;99.90;;;;;;4893151;29;20053;-55
2022/06/06 06:33:32;;;;;;;6.90;2.63;;;11.10;99.90;;;;;;4885509;29;20056;-56
2022/06/06 06:36:02;;;;;;;5.65;2.40;;;11.10;99.90;;;;;;4883126;29;20056;-57
2022/06/06 06:39:13;;;;;;;5.50;2.40;;;11.20;99.90;;;;;;4889013;29;20044;-56
2022/06/06 06:42:26;;;;;;;7.78;2.90;;;11.20;99.90;;;;;;4891077;29;20052;-58
2022/06/06 06:44:59;;;;;;;8.07;2.55;;;11.20;99.90;;;;;;4889470;29;20049;-57
2022/06/06 06:47:34;;;;;;;5.68;2.63;;;11.20;99.90;;;;;;4889261;29;20063;-57
2022/06/06 06:50:39;;;;;;;6.60;2.50;;;11.20;99.90;;;;;;4886311;29;20055;-57
2022/06/06 06:53:31;;;;;;;4.07;2.90;;;11.20;99.90;;;;;;4883471;29;20060;-58
2022/06/06 06:56:25;;;;;;;3.78;2.85;;;11.30;99.90;;;;;;4893000;29;20060;-58
2022/06/06 06:58:55;;;;;;;2.65;1.98;;;11.30;99.90;;;;;;4889167;29;20036;-57
2022/06/06 07:08:35;;;;;;;5.85;2.28;;;11.40;99.90;;;;;;4892499;29;20051;-57
2022/06/06 07:11:09;;;;;;;3.67;2.42;;;11.30;99.90;;;;;;4891589;29;20445;-56
2022/06/06 07:14:00;;;;;;;5.55;2.95;;;11.40;99.90;;;;;;4884572;29;20053;-57
2022/06/06 07:16:36;;;;;;;4.90;2.88;;;11.40;99.90;;;;;;4891509;29;20071;-59
2022/06/06 07:19:12;;;;;;;5.85;2.78;;;11.40;99.90;;;;;;4889166;29;20687;-60
2022/06/06 07:21:41;;;;;;;4.85;3.17;;;11.50;99.90;;;;;;4888724;29;20049;-59
2022/06/06 07:24:14;;;;;;;4.68;2.95;;;11.60;99.90;;;;;;4887829;29;20433;-58
2022/06/06 07:26:43;;;;;;;3.25;2.53;;;11.90;99.90;;;;;;4891292;29;20045;-56
2022/06/06 07:29:14;;;;;;;4.07;2.70;;;11.80;99.90;;;;;;4889744;29;20062;-58
2022/06/06 07:31:53;;;;;;;3.63;2.85;;;11.90;99.90;;;;;;4891440;29;20391;-57
2022/06/06 07:34:41;;;;;;;3.67;3.00;;;11.90;99.90;;;;;;4892903;29;20052;-59
2022/06/06 07:37:15;;;;;;;4.50;3.30;;;12.00;99.90;;;;;;4892683;29;20412;-59
2022/06/06 07:39:48;;;;;;;4.25;3.28;;;12.00;99.90;;;;;;4891626;29;20527;-59
2022/06/06 07:42:31;;;;;;;5.30;3.15;;;12.10;99.90;;;;;;4897390;29;20052;-59
2022/06/06 07:45:34;;;;;;;4.85;2.80;;;12.10;99.90;;;;;;4893787;29;20048;-58
2022/06/06 07:48:14;;;;;;;9.90;4.78;;;12.20;99.90;;;;;;4881739;29;20053;-60
2022/06/06 07:51:03;;;;;;;6.43;3.13;;;12.20;99.90;;;;;;4887581;29;20053;-59
2022/06/06 07:53:34;;;;;;;3.72;2.50;;;12.20;99.90;;;;;;4881159;29;20048;-58
2022/06/06 07:56:07;;;;;;;5.57;2.90;;;12.10;99.90;;;;;;4890384;29;20053;-58
2022/06/06 07:58:50;;;;;;;3.45;2.67;;;12.10;99.90;;;;;;4894171;29;20053;-59
2022/06/06 08:02:03;;;;;;;4.80;2.85;;;12.10;99.90;;;;;;4889022;29;20531;-58
2022/06/06 08:04:59;;;;;;;7.68;3.78;;;12.00;99.90;;;;;;4892689;29;20041;-58
2022/06/06 08:08:14;;;;;;;5.05;2.85;;;12.10;99.90;;;;;;4890480;29;20048;-59
2022/06/06 08:10:46;;;;;;;7.05;2.85;;;12.10;99.90;;;;;;4826277;29;20074;-58
2022/06/06 08:13:29;;;;;;;4.95;2.83;;;12.00;99.90;;;;;;4820679;29;20049;-59
2022/06/06 08:16:06;;;;;;;;;;;12.10;99.90;;;;;;4873267;29;20049;-58
2022/06/06 08:18:58;;;;;;;7.63;4.60;;;12.10;99.90;;;;;;4889186;29;19934;-58
2022/06/06 08:21:39;;;;;;;9.75;4.97;;;12.10;99.90;;;;;;4877980;29;20045;-57
2022/06/06 08:24:18;;;;;;;7.70;4.28;;;12.20;99.90;;;;;;4885678;29;20057;-58
2022/06/06 08:27:11;;;;;;;6.07;3.63;;;12.20;99.90;;;;;;4889369;29;20497;-58
2022/06/06 08:29:48;;;;;;;7.82;3.60;;;12.30;99.90;;;;;;4895549;29;20044;-59
2022/06/06 08:32:16;;;;;;;7.35;3.45;;;12.40;99.90;;;;;;4894112;29;20037;-58
2022/06/06 08:34:44;;;;;;;6.78;3.85;;;12.40;99.90;;;;;;4884805;29;20044;-59
2022/06/06 08:37:32;;;;;;;5.43;3.70;;;12.50;99.90;;;;;;4884058;29;20505;-59
2022/06/06 08:40:21;;;;;;;4.65;3.05;;;12.50;99.90;;;;;;4892821;29;20049;-60
2022/06/06 08:43:21;;;;;;;7.80;3.67;;;12.50;99.90;;;;;;4889048;29;20505;-58
2022/06/06 08:46:06;;;;;;;5.53;3.47;;;12.50;99.90;;;;;;4888834;29;20064;-58
2022/06/06 08:48:58;;;;;;;5.50;3.08;;;12.60;99.90;;;;;;4889711;29;20044;-60
2022/06/06 08:51:43;;;;;;;4.18;3.15;;;12.50;99.90;;;;;;4890920;29;20348;-59
2022/06/06 08:54:37;;;;;;;6.22;3.40;;;12.60;99.90;;;;;;4893417;29;20075;-57
2022/06/06 08:57:13;;;;;;;5.65;3.08;;;12.50;99.90;;;;;;4868700;29;20079;-58
2022/06/06 09:00:06;;;;;;;6.53;3.78;;;12.50;99.90;;;;;;4894361;29;20425;-56
2022/06/06 09:03:26;;;;;;;10.88;3.40;;;12.40;99.90;;;;;;4885927;29;20984;-57
2022/06/06 09:06:39;;;;;;;4.75;2.90;;;12.40;99.90;;;;;;4866184;29;20675;-57
2022/06/06 09:09:39;;;;;;;5.25;2.75;;;12.40;99.90;;;;;;4887758;29;20417;-57
2022/06/06 09:12:31;;;;;;;8.20;3.20;;;12.40;99.90;;;;;;4885740;29;20422;-58
2022/06/06 09:15:18;;;;;;;8.70;2.80;;;12.40;99.90;;;;;;4886114;29;20057;-57
2022/06/06 09:18:03;;;;;;;6.35;2.92;;;12.40;99.90;;;;;;4879868;29;20048;-58
2022/06/06 09:20:54;;;;;;;5.85;2.67;;;12.40;99.90;;;;;;4891921;29;20044;-58
2022/06/06 09:24:03;;;;;;;4.00;2.33;;;12.40;99.90;;;;;;4888574;29;20405;-58
2022/06/06 09:26:39;;;;;;;6.18;2.17;;;12.50;99.90;;;;;;4889958;29;20516;-58
2022/06/06 09:29:44;;;;;;;3.63;2.40;;;12.50;99.90;;;;;;4890646;29;20040;-58
2022/06/06 09:32:25;;;;;;;5.95;2.10;;;12.60;99.90;;;;;;4892625;29;20068;-57
2022/06/06 09:35:30;;;;;;;7.15;2.20;;;12.70;99.90;;;;;;4882915;29;20063;-58
2022/06/06 09:38:19;;;;;;;5.05;2.45;;;12.70;99.90;;;;;;4890968;29;20057;-56
2022/06/06 09:41:48;;;;;;;4.28;2.05;;;12.80;99.90;;;;;;4888246;29;20544;-58
2022/06/06 09:44:38;;;;;;;7.13;2.72;;;12.90;99.90;;;;;;4859251;29;20057;-57
2022/06/06 09:47:43;;;;;;;3.10;2.40;;;13.00;99.90;;;;;;4857219;29;20053;-58
2022/06/06 09:50:53;;;;;;;4.35;2.30;;;13.00;99.90;;;;;;4892877;29;20543;-57
2022/06/06 10:00:17;;;;;;;4.35;2.28;;;13.40;99.90;;;;;;4889921;29;20517;-58
2022/06/06 10:03:14;;;;;;;3.58;1.70;;;13.60;99.90;;;;;;4892070;29;20048;-59
2022/06/06 10:06:20;;;;;;;3.13;2.05;;;13.70;99.90;;;;;;4886049;29;20045;-58
2022/06/06 10:09:33;;;;;;;5.78;2.10;;;13.90;99.90;;;;;;4883992;29;20052;-58
2022/06/06 10:12:28;;;;;;;3.90;1.80;;;14.00;99.90;;;;;;4854688;29;20061;-57
2022/06/06 10:15:24;;;;;;;5.53;2.22;;;14.10;99.90;;;;;;4883766;29;20053;-59
2022/06/06 10:18:37;;;;;;;4.38;2.20;;;14.20;99.90;;;;;;4879963;29;20052;-59
2022/06/06 10:21:42;;;;;;;2.85;2.40;;;14.20;99.90;;;;;;4862786;29;20057;-58
2022/06/06 10:24:43;;;;;;;4.15;2.38;;;14.20;99.90;;;;;;4885526;29;20052;-59
2022/06/06 10:27:32;;;;;;;3.33;2.30;;;14.20;99.90;;;;;;4875904;29;20073;-58
2022/06/06 10:30:33;;;;;;;3.85;2.83;;;14.10;99.90;;;;;;4887667;29;20053;-58
2022/06/06 10:33:03;;;;;;;;;;;14.00;99.90;;;;;;4888066;29;20055;-61
2022/06/06 10:35:49;;;;;;;3.30;2.80;;;14.00;99.90;;;;;;4893848;29;20280;-59
2022/06/06 10:38:51;;;;;;;4.80;2.90;;;14.00;99.90;;;;;;4892440;29;20049;-59
2022/06/06 10:41:54;;;;;;;8.63;2.83;;;14.00;99.90;;;;;;4880252;29;20041;-59
2022/06/06 10:45:03;;;;;;;3.47;2.67;;;14.10;99.90;;;;;;4894014;29;20061;-59
2022/06/06 10:47:42;;;;;;;4.05;2.47;;;14.20;99.90;;;;;;4898203;29;20389;-59
2022/06/06 10:50:28;;;;;;;3.10;2.25;;;14.20;99.90;;;;;;4896466;29;20049;-58
2022/06/06 10:53:10;;;;;;;4.20;2.47;;;14.30;99.90;;;;;;4896275;29;20659;-60
2022/06/06 10:56:15;;;;;;;2.35;2.03;;;14.30;99.90;;;;;;4883084;29;20514;-59
2022/06/06 10:59:20;;;;;;;2.88;2.30;;;14.30;99.90;;;;;;4886697;29;20051;-60
2022/06/06 11:02:03;;;;;;;6.25;2.85;;;14.40;99.90;;;;;;4877648;29;20064;-60
2022/06/06 11:04:59;;;;;;;5.50;3.00;;;14.40;99.90;;;;;;4891241;29;20049;-61
2022/06/06 11:08:03;;;;;;;3.92;2.97;;;14.30;99.90;;;;;;4892690;29;20056;-59
2022/06/06 11:11:09;;;;;;;7.32;4.88;;;14.30;99.90;;;;;;4878079;29;20032;-61
2022/06/06 11:13:40;;;;;;;7.28;4.53;;;14.40;99.90;;;;;;4880547;29;20071;-59
2022/06/06 11:16:29;;;;;;;6.45;4.20;;;14.30;99.90;;;;;;4894981;29;20245;-60
2022/06/06 11:19:25;;;;;;;5.30;4.13;;;14.30;99.90;;;;;;4893194;29;20489;-59
2022/06/06 11:22:01;;;;;;;10.68;4.63;;;14.40;99.90;;;;;;4897461;29;20052;-59
2022/06/06 11:24:38;;;;;;;5.85;3.70;;;14.40;99.90;;;;;;4890917;29;20049;-58
2022/06/06 11:27:28;;;;;;;5.25;3.28;;;14.40;99.90;;;;;;4894224;29;20067;-60
2022/06/06 11:30:09;;;;;;;;;;;14.50;99.90;;;;;;4893653;29;20044;-59
2022/06/06 11:32:39;;;;;;;6.57;3.42;;;14.50;99.90;;;;;;4896974;29;20372;-58
2022/06/06 11:35:15;;;;;;;4.07;3.17;;;14.70;99.90;;;;;;4890861;29;20052;-58
2022/06/06 11:38:03;;;;;;;6.07;3.40;;;14.80;99.90;;;;;;4884693;29;20051;-58
2022/06/06 11:40:49;;;;;;;8.93;3.30;;;15.00;99.90;;;;;;4892217;29;20052;-57
2022/06/06 11:43:36;;;;;;;4.22;3.05;;;15.10;99.90;;;;;;4890596;29;20405;-59
2022/06/06 11:46:33;;;;;;;4.43;2.55;;;15.20;99.90;;;;;;4884217;29;20044;-58
2022/06/06 11:49:27;;;;;;;5.30;2.78;;;15.30;99.90;;;;;;4868360;29;20053;-58
2022/06/06 11:52:33;;;;;;;3.08;2.63;;;15.30;99.90;;;;;;4874804;29;20052;-58
2022/06/06 11:55:29;;;;;;;9.05;3.55;;;15.40;99.90;;;;;;4894828;29;20053;-59
2022/06/06 11:58:34;;;;;;;6.20;3.47;;;15.40;99.90;;;;;;4888635;29;20049;-59
2022/06/06 12:01:26;;;;;;;10.55;5.82;;;15.40;99.90;;;;;;4889149;29;20063;-58
2022/06/06 12:04:12;;;;;;;10.68;3.92;;;15.40;99.90;;;;;;4887332;29;20045;-58
2022/06/06 12:07:11;;;;;;;4.55;2.75;;;15.30;99.90;;;;;;4878014;29;20045;-57
2022/06/06 12:09:57;;;;;;;5.28;3.50;;;15.20;99.90;;;;;;4884770;29;20047;-58
2022/06/06 12:13:08;;;;;;;3.88;2.60;;;15.10;99.90;;;;;;4893283;29;20052;-58
2022/06/06 12:15:48;;;;;;;3.17;2.63;;;15.20;99.90;;;;;;4879682;29;20052;-58
2022/06/06 12:18:22;;;;;;;5.50;2.25;;;15.20;99.90;;;;;;4883980;29;20496;-59
2022/06/06 12:21:10;;;;;;;5.03;2.50;;;15.20;99.90;;;;;;4895575;29;20508;-59
2022/06/06 12:23:59;;;;;;;3.65;2.88;;;15.20;99.90;;;;;;4886886;29;20524;-59
2022/06/06 12:26:44;;;;;;;4.15;2.75;;;15.20;99.90;;;;;;4894254;29;20044;-58
2022/06/06 12:29:38;;;;;;;8.50;3.40;;;15.20;99.90;;;;;;4881988;29;20461;-59
2022/06/06 12:32:21;;;;;;;4.63;3.30;;;15.10;99.90;;;;;;4889850;29;20045;-58
2022/06/06 12:34:55;;;;;;;7.65;3.13;;;15.00;99.90;;;;;;4894873;29;20068;-59
2022/06/06 12:37:41;;;;;;;6.55;3.40;;;14.90;99.90;;;;;;4892930;29;20076;-59
2022/06/06 12:40:27;;;;;;;6.43;3.40;;;14.90;99.90;;;;;;4890854;29;20057;-59
2022/06/06 12:43:04;;;;;;;7.05;4.88;;;14.80;99.90;;;;;;4887472;29;20051;-59
2022/06/06 12:46:00;;;;;;;7.70;6.03;;;14.60;99.90;;;;;;4882968;29;20056;-58
2022/06/06 12:48:46;;;;;;;8.32;5.43;;;14.50;99.90;;;;;;4874346;29;20045;-59
2022/06/06 12:51:25;;;;;;;6.97;4.35;;;14.30;99.90;;;;;;4878722;29;20152;-58
2022/06/06 12:54:05;;;;;;;7.57;5.25;;;14.20;99.90;;;;;;4888616;29;20064;-57
2022/06/06 12:56:54;;;;;;;7.05;4.95;;;14.10;99.90;;;;;;4884078;29;20045;-58
2022/06/06 12:59:25;;;;;;;6.70;5.22;;;14.00;99.90;;;;;;4888686;29;20045;-58
2022/06/06 13:02:22;;;;;;;5.70;4.35;;;13.90;99.90;;;;;;4868123;29;20045;-58
2022/06/06 13:05:20;;;;;;;8.55;4.60;;;13.80;99.90;;;;;;4892064;29;20056;-59
2022/06/06 13:07:56;;;;;;;6.40;4.75;;;13.70;99.90;;;;;;4892337;29;20048;-58
2022/06/06 13:10:53;;;;;;;8.10;4.57;;;13.80;99.90;;;;;;4890777;29;20602;-58
2022/06/06 13:13:44;;;;;;;9.70;4.40;;;13.70;99.90;;;;;;4895033;29;20048;-58
2022/06/06 13:16:48;;;;;;;7.00;3.97;;;13.70;99.90;;;;;;4884819;29;20049;-60
2022/06/06 13:19:34;;;;;;;6.30;4.43;;;13.80;99.90;;;;;;4880915;29;20056;-58
2022/06/06 13:22:05;;;;;;;9.57;3.78;;;13.80;99.90;;;;;;4891653;29;20056;-58
2022/06/06 13:24:42;;;;;;;6.00;4.07;;;13.80;99.90;;;;;;4876400;29;20041;-58
2022/06/06 13:27:19;;;;;;;5.38;3.65;;;13.80;99.90;;;;;;4890491;29;20281;-58
2022/06/06 13:29:47;;;;;;;8.13;4.45;;;13.80;99.90;;;;;;4892480;29;20048;-58
2022/06/06 13:32:28;;;;;;;10.88;4.55;;;13.80;99.90;;;;;;4888058;29;20084;-58
2022/06/06 13:35:15;;;;;;;6.28;3.95;;;13.80;99.90;;;;;;4859046;29;20056;-58
2022/06/06 13:38:15;;;;;;;7.53;4.43;;;13.80;99.90;;;;;;4861181;29;20859;-57
2022/06/06 13:40:58;;;;;;;5.78;3.85;;;13.90;99.90;;;;;;4883154;29;20055;-58
2022/06/06 13:43:43;;;;;;;4.90;3.85;;;13.90;99.90;;;;;;4893369;29;20057;-58
2022/06/06 13:46:18;;;;;;;5.38;3.72;;;14.00;99.90;;;;;;4885075;29;20069;-58
2022/06/06 13:49:03;;;;;;;6.70;4.45;;;14.20;99.90;;;;;;4888824;29;20048;-58
2022/06/06 13:51:50;;;;;;;6.65;4.45;;;14.30;99.90;;;;;;4892312;29;20061;-58
2022/06/06 13:54:39;;;;;;;5.53;3.78;;;14.50;99.90;;;;;;4892897;29;20045;-57
2022/06/06 13:57:13;;;;;;;5.90;4.35;;;14.70;99.90;;;;;;4885445;29;20041;-58
2022/06/06 13:59:47;;;;;;;4.93;4.03;;;14.80;99.90;;;;;;4892198;29;20063;-58
2022/06/06 14:02:36;;;;;;;5.32;3.80;;;15.10;99.90;;;;;;4888399;29;20049;-59
2022/06/06 14:05:10;;;;;;;5.68;3.60;;;15.30;99.90;;;;;;4893338;29;20048;-58
2022/06/06 14:07:58;;;;;;;5.30;3.80;;;15.50;99.90;;;;;;4890775;29;20404;-59
2022/06/06 14:10:41;;;;;;;5.75;3.67;;;15.80;99.90;;;;;;4887784;29;20057;-57
2022/06/06 14:13:24;;;;;;;5.20;3.33;;;16.10;99.90;;;;;;4891670;29;20047;-58
2022/06/06 14:16:26;;;;;;;4.93;3.45;;;16.20;99.90;;;;;;4879472;29;20409;-59
2022/06/06 14:19:05;;;;;;;5.72;3.80;;;16.40;99.90;;;;;;4885115;29;20052;-59
2022/06/06 14:21:39;;;;;;;3.97;3.33;;;16.40;99.90;;;;;;4874870;29;20056;-58
2022/06/06 14:24:16;;;;;;;6.35;3.35;;;16.40;99.90;;;;;;4889628;29;20519;-58
2022/06/06 14:26:59;;;;;;;4.53;3.58;;;16.30;99.90;;;;;;4891570;29;20052;-59
2022/06/06 14:29:29;;;;;;;6.13;3.55;;;16.30;99.90;;;;;;4891055;29;20245;-58
2022/06/06 14:32:30;;;;;;;7.07;3.83;;;16.10;99.90;;;;;;4886989;29;20053;-58